sensor_id;sensor_type;location;lat;lon;timestamp;P1;durP1;ratioP1;P2;durP2;ratioP2
13764;SDS011;6953;48.810;9.204;2022-08-14T00:01:53;0.25;;;0.25;;
13764;SDS011;6953;48.810;9.204;2022-08-14T00:04:18;0.40;;;0.40;;
13764;SDS011;6953;48.810;9.204;2022-08-14T00:06:44;0.60;;;0.60;;
13764;SDS011;6953;48.810;9.204;2022-08-14T00:09:10;0.47;;;0.47;;
13764;SDS011;6953;48.810;9.204;2022-08-14T00:11:35;0.35;;;0.35;;
13764;SDS011;6953;48.810;9.204;2022-08-14T00:14:00;0.40;;;0.40;;
13764;SDS011;6953;48.810;9.204;2022-08-14T00:16:26;0.40;;;0.40;;
13764;SDS011;6953;48.810;9.204;2022-08-14T00:18:51;0.50;;;0.50;;
13764;SDS011;6953;48.810;9.204;2022-08-14T00:21:17;0.35;;;0.35;;
13764;SDS011;6953;48.810;9.204;2022-08-14T00:23:42;0.28;;;0.28;;
13764;SDS011;6953;48.810;9.204;2022-08-14T00:26:08;0.30;;;0.30;;
13764;SDS011;6953;48.810;9.204;2022-08-14T00:28:34;0.40;;;0.40;;
13764;SDS011;6953;48.810;9.204;2022-08-14T00:31:00;0.50;;;0.50;;
13764;SDS011;6953;48.810;9.204;2022-08-14T00:33:26;0.60;;;0.60;;
13764;SDS011;6953;48.810;9.204;2022-08-14T00:35:52;0.50;;;0.50;;
13764;SDS011;6953;48.810;9.204;2022-08-14T00:38:18;0.60;;;0.60;;
13764;SDS011;6953;48.810;9.204;2022-08-14T00:40:44;0.60;;;0.60;;
13764;SDS011;6953;48.810;9.204;2022-08-14T00:43:09;0.50;;;0.50;;
13764;SDS011;6953;48.810;9.204;2022-08-14T00:45:35;0.50;;;0.50;;
13764;SDS011;6953;48.810;9.204;2022-08-14T00:48:01;0.50;;;0.50;;
13764;SDS011;6953;48.810;9.204;2022-08-14T00:50:27;0.57;;;0.57;;
13764;SDS011;6953;48.810;9.204;2022-08-14T00:52:56;0.50;;;0.50;;
13764;SDS011;6953;48.810;9.204;2022-08-14T00:55:24;0.50;;;0.50;;
13764;SDS011;6953;48.810;9.204;2022-08-14T00:57:51;0.55;;;0.55;;
13764;SDS011;6953;48.810;9.204;2022-08-14T01:00:36;0.52;;;0.52;;
13764;SDS011;6953;48.810;9.204;2022-08-14T01:03:03;0.60;;;0.60;;
13764;SDS011;6953;48.810;9.204;2022-08-14T01:05:29;0.60;;;0.60;;
13764;SDS011;6953;48.810;9.204;2022-08-14T01:07:55;0.60;;;0.60;;
13764;SDS011;6953;48.810;9.204;2022-08-14T01:10:24;0.50;;;0.50;;
13764;SDS011;6953;48.810;9.204;2022-08-14T01:13:11;0.50;;;0.50;;
13764;SDS011;6953;48.810;9.204;2022-08-14T01:15:40;0.60;;;0.60;;
13764;SDS011;6953;48.810;9.204;2022-08-14T01:18:06;0.50;;;0.50;;
13764;SDS011;6953;48.810;9.204;2022-08-14T01:20:50;0.60;;;0.60;;
13764;SDS011;6953;48.810;9.204;2022-08-14T01:23:27;0.60;;;0.60;;
13764;SDS011;6953;48.810;9.204;2022-08-14T01:25:54;0.50;;;0.50;;
13764;SDS011;6953;48.810;9.204;2022-08-14T01:28:21;0.52;;;0.52;;
13764;SDS011;6953;48.810;9.204;2022-08-14T01:30:46;0.60;;;0.60;;
13764;SDS011;6953;48.810;9.204;2022-08-14T01:33:13;0.50;;;0.50;;
13764;SDS011;6953;48.810;9.204;2022-08-14T01:35:39;0.68;;;0.68;;
13764;SDS011;6953;48.810;9.204;2022-08-14T01:38:08;0.57;;;0.57;;
13764;SDS011;6953;48.810;9.204;2022-08-14T01:40:37;0.50;;;0.50;;
13764;SDS011;6953;48.810;9.204;2022-08-14T01:43:02;0.60;;;0.60;;
13764;SDS011;6953;48.810;9.204;2022-08-14T01:45:31;0.40;;;0.40;;
13764;SDS011;6953;48.810;9.204;2022-08-14T01:47:57;0.50;;;0.50;;
13764;SDS011;6953;48.810;9.204;2022-08-14T01:50:22;0.50;;;0.50;;
13764;SDS011;6953;48.810;9.204;2022-08-14T01:52:47;0.45;;;0.45;;
13764;SDS011;6953;48.810;9.204;2022-08-14T01:55:13;0.30;;;0.30;;
13764;SDS011;6953;48.810;9.204;2022-08-14T01:57:41;0.30;;;0.30;;
13764;SDS011;6953;48.810;9.204;2022-08-14T02:00:08;0.40;;;0.40;;
13764;SDS011;6953;48.810;9.204;2022-08-14T02:02:39;0.40;;;0.40;;
13764;SDS011;6953;48.810;9.204;2022-08-14T02:05:04;0.30;;;0.30;;
13764;SDS011;6953;48.810;9.204;2022-08-14T02:07:30;0.30;;;0.30;;
13764;SDS011;6953;48.810;9.204;2022-08-14T02:09:56;0.30;;;0.30;;
13764;SDS011;6953;48.810;9.204;2022-08-14T02:12:22;0.30;;;0.30;;
13764;SDS011;6953;48.810;9.204;2022-08-14T02:14:48;0.20;;;0.20;;
13764;SDS011;6953;48.810;9.204;2022-08-14T02:17:14;0.30;;;0.30;;
13764;SDS011;6953;48.810;9.204;2022-08-14T02:19:39;0.30;;;0.30;;
13764;SDS011;6953;48.810;9.204;2022-08-14T02:22:05;0.20;;;0.20;;
13764;SDS011;6953;48.810;9.204;2022-08-14T02:24:30;0.30;;;0.30;;
13764;SDS011;6953;48.810;9.204;2022-08-14T02:26:57;0.20;;;0.20;;
13764;SDS011;6953;48.810;9.204;2022-08-14T02:29:24;0.30;;;0.30;;
13764;SDS011;6953;48.810;9.204;2022-08-14T02:31:53;0.20;;;0.20;;
13764;SDS011;6953;48.810;9.204;2022-08-14T02:34:22;0.30;;;0.30;;
13764;SDS011;6953;48.810;9.204;2022-08-14T02:36:57;0.30;;;0.30;;
13764;SDS011;6953;48.810;9.204;2022-08-14T02:39:26;0.20;;;0.20;;
13764;SDS011;6953;48.810;9.204;2022-08-14T02:41:56;0.20;;;0.20;;
13764;SDS011;6953;48.810;9.204;2022-08-14T02:44:22;0.30;;;0.30;;
13764;SDS011;6953;48.810;9.204;2022-08-14T02:46:49;0.35;;;0.35;;
13764;SDS011;6953;48.810;9.204;2022-08-14T02:49:16;0.22;;;0.22;;
13764;SDS011;6953;48.810;9.204;2022-08-14T02:51:45;0.30;;;0.30;;
13764;SDS011;6953;48.810;9.204;2022-08-14T02:54:13;0.40;;;0.40;;
13764;SDS011;6953;48.810;9.204;2022-08-14T02:56:38;0.50;;;0.50;;
13764;SDS011;6953;48.810;9.204;2022-08-14T02:59:04;0.60;;;0.60;;
13764;SDS011;6953;48.810;9.204;2022-08-14T03:01:32;0.60;;;0.60;;
13764;SDS011;6953;48.810;9.204;2022-08-14T03:03:58;0.40;;;0.40;;
13764;SDS011;6953;48.810;9.204;2022-08-14T03:06:24;0.30;;;0.30;;
13764;SDS011;6953;48.810;9.204;2022-08-14T03:08:50;0.35;;;0.35;;
13764;SDS011;6953;48.810;9.204;2022-08-14T03:11:17;0.30;;;0.30;;
13764;SDS011;6953;48.810;9.204;2022-08-14T03:13:44;0.30;;;0.30;;
13764;SDS011;6953;48.810;9.204;2022-08-14T03:16:13;0.30;;;0.30;;
13764;SDS011;6953;48.810;9.204;2022-08-14T03:18:41;0.30;;;0.30;;
13764;SDS011;6953;48.810;9.204;2022-08-14T03:21:09;0.30;;;0.30;;
13764;SDS011;6953;48.810;9.204;2022-08-14T03:23:38;0.40;;;0.40;;
13764;SDS011;6953;48.810;9.204;2022-08-14T03:26:10;0.30;;;0.30;;
13764;SDS011;6953;48.810;9.204;2022-08-14T03:28:40;0.30;;;0.30;;
13764;SDS011;6953;48.810;9.204;2022-08-14T03:31:08;0.30;;;0.30;;
13764;SDS011;6953;48.810;9.204;2022-08-14T03:33:35;0.38;;;0.38;;
13764;SDS011;6953;48.810;9.204;2022-08-14T03:36:03;0.40;;;0.40;;
13764;SDS011;6953;48.810;9.204;2022-08-14T03:38:34;0.30;;;0.30;;
13764;SDS011;6953;48.810;9.204;2022-08-14T03:41:06;0.30;;;0.30;;
13764;SDS011;6953;48.810;9.204;2022-08-14T03:43:41;0.30;;;0.30;;
13764;SDS011;6953;48.810;9.204;2022-08-14T03:46:08;0.30;;;0.30;;
13764;SDS011;6953;48.810;9.204;2022-08-14T03:48:36;0.30;;;0.30;;
13764;SDS011;6953;48.810;9.204;2022-08-14T03:51:06;0.30;;;0.30;;
13764;SDS011;6953;48.810;9.204;2022-08-14T03:53:36;0.28;;;0.28;;
13764;SDS011;6953;48.810;9.204;2022-08-14T03:56:14;0.30;;;0.30;;
13764;SDS011;6953;48.810;9.204;2022-08-14T03:58:41;0.30;;;0.30;;
13764;SDS011;6953;48.810;9.204;2022-08-14T04:01:16;0.30;;;0.30;;
13764;SDS011;6953;48.810;9.204;2022-08-14T04:03:46;0.30;;;0.30;;
13764;SDS011;6953;48.810;9.204;2022-08-14T04:06:12;0.40;;;0.40;;
13764;SDS011;6953;48.810;9.204;2022-08-14T04:08:39;0.30;;;0.30;;
13764;SDS011;6953;48.810;9.204;2022-08-14T04:11:09;0.40;;;0.40;;
13764;SDS011;6953;48.810;9.204;2022-08-14T04:13:36;0.30;;;0.30;;
13764;SDS011;6953;48.810;9.204;2022-08-14T04:16:05;0.30;;;0.30;;
13764;SDS011;6953;48.810;9.204;2022-08-14T04:18:33;0.30;;;0.30;;
13764;SDS011;6953;48.810;9.204;2022-08-14T04:21:04;0.25;;;0.25;;
13764;SDS011;6953;48.810;9.204;2022-08-14T04:23:30;0.30;;;0.30;;
13764;SDS011;6953;48.810;9.204;2022-08-14T04:25:59;0.30;;;0.30;;
13764;SDS011;6953;48.810;9.204;2022-08-14T04:28:27;0.20;;;0.20;;
13764;SDS011;6953;48.810;9.204;2022-08-14T04:30:52;0.30;;;0.30;;
13764;SDS011;6953;48.810;9.204;2022-08-14T04:33:19;0.30;;;0.30;;
13764;SDS011;6953;48.810;9.204;2022-08-14T04:35:44;0.30;;;0.30;;
13764;SDS011;6953;48.810;9.204;2022-08-14T04:38:11;0.30;;;0.30;;
13764;SDS011;6953;48.810;9.204;2022-08-14T04:40:56;0.30;;;0.30;;
13764;SDS011;6953;48.810;9.204;2022-08-14T04:43:40;0.30;;;0.30;;
13764;SDS011;6953;48.810;9.204;2022-08-14T04:46:09;0.30;;;0.30;;
13764;SDS011;6953;48.810;9.204;2022-08-14T04:48:40;0.20;;;0.20;;
13764;SDS011;6953;48.810;9.204;2022-08-14T04:51:11;0.20;;;0.20;;
13764;SDS011;6953;48.810;9.204;2022-08-14T04:53:38;0.30;;;0.30;;
13764;SDS011;6953;48.810;9.204;2022-08-14T04:56:10;0.20;;;0.20;;
13764;SDS011;6953;48.810;9.204;2022-08-14T04:58:38;0.30;;;0.30;;
13764;SDS011;6953;48.810;9.204;2022-08-14T05:01:05;0.20;;;0.20;;
13764;SDS011;6953;48.810;9.204;2022-08-14T05:03:32;0.20;;;0.20;;
13764;SDS011;6953;48.810;9.204;2022-08-14T05:06:01;0.30;;;0.30;;
13764;SDS011;6953;48.810;9.204;2022-08-14T05:08:49;0.25;;;0.25;;
13764;SDS011;6953;48.810;9.204;2022-08-14T05:11:15;0.30;;;0.30;;
13764;SDS011;6953;48.810;9.204;2022-08-14T05:13:43;0.20;;;0.20;;
13764;SDS011;6953;48.810;9.204;2022-08-14T05:16:08;0.20;;;0.20;;
13764;SDS011;6953;48.810;9.204;2022-08-14T05:18:37;0.20;;;0.20;;
13764;SDS011;6953;48.810;9.204;2022-08-14T05:21:04;0.20;;;0.20;;
13764;SDS011;6953;48.810;9.204;2022-08-14T05:23:34;0.20;;;0.20;;
13764;SDS011;6953;48.810;9.204;2022-08-14T05:26:02;0.20;;;0.20;;
13764;SDS011;6953;48.810;9.204;2022-08-14T05:28:38;0.20;;;0.20;;
13764;SDS011;6953;48.810;9.204;2022-08-14T05:31:14;0.20;;;0.20;;
13764;SDS011;6953;48.810;9.204;2022-08-14T05:33:43;0.15;;;0.15;;
13764;SDS011;6953;48.810;9.204;2022-08-14T05:36:13;0.10;;;0.10;;
13764;SDS011;6953;48.810;9.204;2022-08-14T05:38:48;0.10;;;0.10;;
13764;SDS011;6953;48.810;9.204;2022-08-14T05:41:16;0.10;;;0.10;;
13764;SDS011;6953;48.810;9.204;2022-08-14T05:43:43;0.10;;;0.10;;
13764;SDS011;6953;48.810;9.204;2022-08-14T05:46:12;0.10;;;0.10;;
13764;SDS011;6953;48.810;9.204;2022-08-14T05:48:39;0.10;;;0.10;;
13764;SDS011;6953;48.810;9.204;2022-08-14T05:51:04;0.10;;;0.10;;
13764;SDS011;6953;48.810;9.204;2022-08-14T05:53:31;0.10;;;0.10;;
13764;SDS011;6953;48.810;9.204;2022-08-14T05:55:58;0.00;;;0.00;;
13764;SDS011;6953;48.810;9.204;2022-08-14T05:58:25;0.10;;;0.10;;
13764;SDS011;6953;48.810;9.204;2022-08-14T06:00:51;0.05;;;0.05;;
13764;SDS011;6953;48.810;9.204;2022-08-14T06:03:18;0.00;;;0.00;;
13764;SDS011;6953;48.810;9.204;2022-08-14T06:05:46;0.10;;;0.10;;
13764;SDS011;6953;48.810;9.204;2022-08-14T06:08:14;0.10;;;0.10;;
13764;SDS011;6953;48.810;9.204;2022-08-14T06:10:48;0.00;;;0.00;;
13764;SDS011;6953;48.810;9.204;2022-08-14T06:13:15;0.10;;;0.10;;
13764;SDS011;6953;48.810;9.204;2022-08-14T06:15:41;0.00;;;0.00;;
13764;SDS011;6953;48.810;9.204;2022-08-14T06:18:07;0.10;;;0.10;;
13764;SDS011;6953;48.810;9.204;2022-08-14T06:20:37;0.00;;;0.00;;
13764;SDS011;6953;48.810;9.204;2022-08-14T06:23:04;0.10;;;0.10;;
13764;SDS011;6953;48.810;9.204;2022-08-14T06:25:34;0.00;;;0.00;;
13764;SDS011;6953;48.810;9.204;2022-08-14T06:28:05;0.10;;;0.10;;
13764;SDS011;6953;48.810;9.204;2022-08-14T06:30:31;0.03;;;0.03;;
13764;SDS011;6953;48.810;9.204;2022-08-14T06:32:58;0.00;;;0.00;;
13764;SDS011;6953;48.810;9.204;2022-08-14T06:35:23;0.10;;;0.10;;
13764;SDS011;6953;48.810;9.204;2022-08-14T06:37:52;0.00;;;0.00;;
13764;SDS011;6953;48.810;9.204;2022-08-14T06:40:21;0.10;;;0.10;;
13764;SDS011;6953;48.810;9.204;2022-08-14T06:42:52;0.00;;;0.00;;
13764;SDS011;6953;48.810;9.204;2022-08-14T06:45:19;0.10;;;0.10;;
13764;SDS011;6953;48.810;9.204;2022-08-14T06:47:46;0.10;;;0.10;;
13764;SDS011;6953;48.810;9.204;2022-08-14T06:50:16;0.10;;;0.10;;
13764;SDS011;6953;48.810;9.204;2022-08-14T06:52:44;0.00;;;0.00;;
13764;SDS011;6953;48.810;9.204;2022-08-14T06:55:11;0.10;;;0.10;;
13764;SDS011;6953;48.810;9.204;2022-08-14T06:57:40;0.00;;;0.00;;
13764;SDS011;6953;48.810;9.204;2022-08-14T07:00:09;0.00;;;0.00;;
13764;SDS011;6953;48.810;9.204;2022-08-14T07:02:37;0.00;;;0.00;;
13764;SDS011;6953;48.810;9.204;2022-08-14T07:05:21;0.00;;;0.00;;
13764;SDS011;6953;48.810;9.204;2022-08-14T07:08:10;0.00;;;0.00;;
13764;SDS011;6953;48.810;9.204;2022-08-14T07:10:44;0.00;;;0.00;;
13764;SDS011;6953;48.810;9.204;2022-08-14T07:13:13;0.00;;;0.00;;
13764;SDS011;6953;48.810;9.204;2022-08-14T07:15:39;0.00;;;0.00;;
13764;SDS011;6953;48.810;9.204;2022-08-14T07:18:13;0.00;;;0.00;;
13764;SDS011;6953;48.810;9.204;2022-08-14T07:20:39;0.00;;;0.00;;
13764;SDS011;6953;48.810;9.204;2022-08-14T07:23:07;0.00;;;0.00;;
13764;SDS011;6953;48.810;9.204;2022-08-14T07:25:34;0.00;;;0.00;;
13764;SDS011;6953;48.810;9.204;2022-08-14T07:28:07;0.00;;;0.00;;
13764;SDS011;6953;48.810;9.204;2022-08-14T07:30:35;0.00;;;0.00;;
13764;SDS011;6953;48.810;9.204;2022-08-14T07:33:01;0.00;;;0.00;;
13764;SDS011;6953;48.810;9.204;2022-08-14T07:35:29;0.00;;;0.00;;
13764;SDS011;6953;48.810;9.204;2022-08-14T07:37:54;0.00;;;0.00;;
13764;SDS011;6953;48.810;9.204;2022-08-14T07:40:20;0.00;;;0.00;;
13764;SDS011;6953;48.810;9.204;2022-08-14T07:42:46;0.00;;;0.00;;
13764;SDS011;6953;48.810;9.204;2022-08-14T07:45:12;0.00;;;0.00;;
13764;SDS011;6953;48.810;9.204;2022-08-14T07:47:38;0.00;;;0.00;;
13764;SDS011;6953;48.810;9.204;2022-08-14T07:50:11;0.00;;;0.00;;
13764;SDS011;6953;48.810;9.204;2022-08-14T07:52:38;0.00;;;0.00;;
13764;SDS011;6953;48.810;9.204;2022-08-14T07:55:05;0.00;;;0.00;;
13764;SDS011;6953;48.810;9.204;2022-08-14T07:57:33;0.00;;;0.00;;
13764;SDS011;6953;48.810;9.204;2022-08-14T08:00:06;0.00;;;0.00;;
13764;SDS011;6953;48.810;9.204;2022-08-14T08:02:38;0.00;;;0.00;;
13764;SDS011;6953;48.810;9.204;2022-08-14T08:05:09;0.00;;;0.00;;
13764;SDS011;6953;48.810;9.204;2022-08-14T08:07:36;0.00;;;0.00;;
13764;SDS011;6953;48.810;9.204;2022-08-14T08:10:14;0.00;;;0.00;;
13764;SDS011;6953;48.810;9.204;2022-08-14T08:15:32;0.00;;;0.00;;
13764;SDS011;6953;48.810;9.204;2022-08-14T08:18:00;0.00;;;0.00;;
13764;SDS011;6953;48.810;9.204;2022-08-14T08:20:28;0.00;;;0.00;;
13764;SDS011;6953;48.810;9.204;2022-08-14T08:22:56;0.00;;;0.00;;
13764;SDS011;6953;48.810;9.204;2022-08-14T08:25:31;0.00;;;0.00;;
13764;SDS011;6953;48.810;9.204;2022-08-14T08:28:07;0.00;;;0.00;;
13764;SDS011;6953;48.810;9.204;2022-08-14T08:30:38;0.00;;;0.00;;
13764;SDS011;6953;48.810;9.204;2022-08-14T08:33:06;0.00;;;0.00;;
13764;SDS011;6953;48.810;9.204;2022-08-14T08:35:35;0.00;;;0.00;;
13764;SDS011;6953;48.810;9.204;2022-08-14T08:38:04;0.00;;;0.00;;
13764;SDS011;6953;48.810;9.204;2022-08-14T08:40:34;0.00;;;0.00;;
13764;SDS011;6953;48.810;9.204;2022-08-14T08:43:06;0.00;;;0.00;;
13764;SDS011;6953;48.810;9.204;2022-08-14T08:45:59;0.00;;;0.00;;
13764;SDS011;6953;48.810;9.204;2022-08-14T08:48:41;0.00;;;0.00;;
13764;SDS011;6953;48.810;9.204;2022-08-14T08:51:45;0.00;;;0.00;;
13764;SDS011;6953;48.810;9.204;2022-08-14T08:54:21;0.00;;;0.00;;
13764;SDS011;6953;48.810;9.204;2022-08-14T08:56:48;0.00;;;0.00;;
13764;SDS011;6953;48.810;9.204;2022-08-14T08:59:23;0.00;;;0.00;;
13764;SDS011;6953;48.810;9.204;2022-08-14T09:01:54;0.00;;;0.00;;
13764;SDS011;6953;48.810;9.204;2022-08-14T09:04:22;0.00;;;0.00;;
13764;SDS011;6953;48.810;9.204;2022-08-14T09:06:51;0.00;;;0.00;;
13764;SDS011;6953;48.810;9.204;2022-08-14T09:09:21;0.00;;;0.00;;
13764;SDS011;6953;48.810;9.204;2022-08-14T09:11:53;0.00;;;0.00;;
13764;SDS011;6953;48.810;9.204;2022-08-14T09:14:22;0.00;;;0.00;;
13764;SDS011;6953;48.810;9.204;2022-08-14T09:16:55;0.00;;;0.00;;
13764;SDS011;6953;48.810;9.204;2022-08-14T09:19:23;0.00;;;0.00;;
13764;SDS011;6953;48.810;9.204;2022-08-14T09:21:51;0.00;;;0.00;;
13764;SDS011;6953;48.810;9.204;2022-08-14T09:24:18;0.00;;;0.00;;
13764;SDS011;6953;48.810;9.204;2022-08-14T09:26:45;0.00;;;0.00;;
13764;SDS011;6953;48.810;9.204;2022-08-14T09:29:11;0.00;;;0.00;;
13764;SDS011;6953;48.810;9.204;2022-08-14T09:31:37;0.00;;;0.00;;
13764;SDS011;6953;48.810;9.204;2022-08-14T09:42:56;0.00;;;0.00;;
13764;SDS011;6953;48.810;9.204;2022-08-14T09:48:19;0.00;;;0.00;;
13764;SDS011;6953;48.810;9.204;2022-08-14T09:50:49;0.00;;;0.00;;
13764;SDS011;6953;48.810;9.204;2022-08-14T09:53:29;0.00;;;0.00;;
13764;SDS011;6953;48.810;9.204;2022-08-14T09:56:08;0.00;;;0.00;;
13764;SDS011;6953;48.810;9.204;2022-08-14T09:58:40;0.00;;;0.00;;
13764;SDS011;6953;48.810;9.204;2022-08-14T10:01:10;0.00;;;0.00;;
13764;SDS011;6953;48.810;9.204;2022-08-14T10:03:45;0.00;;;0.00;;
13764;SDS011;6953;48.810;9.204;2022-08-14T10:06:15;0.00;;;0.00;;
13764;SDS011;6953;48.810;9.204;2022-08-14T10:08:49;0.00;;;0.00;;
13764;SDS011;6953;48.810;9.204;2022-08-14T10:13:44;0.00;;;0.00;;
13764;SDS011;6953;48.810;9.204;2022-08-14T10:16:11;0.00;;;0.00;;
13764;SDS011;6953;48.810;9.204;2022-08-14T10:18:38;0.00;;;0.00;;
13764;SDS011;6953;48.810;9.204;2022-08-14T10:21:03;0.00;;;0.00;;
13764;SDS011;6953;48.810;9.204;2022-08-14T10:23:42;0.00;;;0.00;;
13764;SDS011;6953;48.810;9.204;2022-08-14T10:26:13;0.00;;;0.00;;
13764;SDS011;6953;48.810;9.204;2022-08-14T10:28:46;0.00;;;0.00;;
13764;SDS011;6953;48.810;9.204;2022-08-14T10:31:16;0.00;;;0.00;;
13764;SDS011;6953;48.810;9.204;2022-08-14T10:33:44;0.00;;;0.00;;
13764;SDS011;6953;48.810;9.204;2022-08-14T10:37:00;0.00;;;0.00;;
13764;SDS011;6953;48.810;9.204;2022-08-14T10:41:42;0.00;;;0.00;;
13764;SDS011;6953;48.810;9.204;2022-08-14T10:46:45;0.00;;;0.00;;
13764;SDS011;6953;48.810;9.204;2022-08-14T10:49:20;0.00;;;0.00;;
13764;SDS011;6953;48.810;9.204;2022-08-14T10:54:31;0.00;;;0.00;;
13764;SDS011;6953;48.810;9.204;2022-08-14T10:59:52;0.00;;;0.00;;
13764;SDS011;6953;48.810;9.204;2022-08-14T11:07:42;0.00;;;0.00;;
13764;SDS011;6953;48.810;9.204;2022-08-14T11:10:20;0.00;;;0.00;;
13764;SDS011;6953;48.810;9.204;2022-08-14T11:12:48;0.00;;;0.00;;
13764;SDS011;6953;48.810;9.204;2022-08-14T11:15:16;0.00;;;0.00;;
13764;SDS011;6953;48.810;9.204;2022-08-14T11:17:43;0.10;;;0.10;;
13764;SDS011;6953;48.810;9.204;2022-08-14T11:20:11;0.00;;;0.00;;
13764;SDS011;6953;48.810;9.204;2022-08-14T11:22:38;0.00;;;0.00;;
13764;SDS011;6953;48.810;9.204;2022-08-14T11:25:05;0.00;;;0.00;;
13764;SDS011;6953;48.810;9.204;2022-08-14T11:27:33;0.00;;;0.00;;
13764;SDS011;6953;48.810;9.204;2022-08-14T11:29:59;0.00;;;0.00;;
13764;SDS011;6953;48.810;9.204;2022-08-14T11:32:28;0.00;;;0.00;;
13764;SDS011;6953;48.810;9.204;2022-08-14T11:34:55;0.00;;;0.00;;
13764;SDS011;6953;48.810;9.204;2022-08-14T11:37:29;0.00;;;0.00;;
13764;SDS011;6953;48.810;9.204;2022-08-14T11:39:58;0.00;;;0.00;;
13764;SDS011;6953;48.810;9.204;2022-08-14T11:42:27;0.00;;;0.00;;
13764;SDS011;6953;48.810;9.204;2022-08-14T11:44:59;0.00;;;0.00;;
13764;SDS011;6953;48.810;9.204;2022-08-14T11:47:31;0.00;;;0.00;;
13764;SDS011;6953;48.810;9.204;2022-08-14T11:49:57;0.00;;;0.00;;
13764;SDS011;6953;48.810;9.204;2022-08-14T11:52:23;0.00;;;0.00;;
13764;SDS011;6953;48.810;9.204;2022-08-14T11:54:58;0.00;;;0.00;;
13764;SDS011;6953;48.810;9.204;2022-08-14T11:57:24;0.00;;;0.00;;
13764;SDS011;6953;48.810;9.204;2022-08-14T11:59:59;0.00;;;0.00;;
13764;SDS011;6953;48.810;9.204;2022-08-14T12:02:25;0.00;;;0.00;;
13764;SDS011;6953;48.810;9.204;2022-08-14T12:04:51;0.00;;;0.00;;
13764;SDS011;6953;48.810;9.204;2022-08-14T12:07:17;0.00;;;0.00;;
13764;SDS011;6953;48.810;9.204;2022-08-14T12:09:44;0.00;;;0.00;;
13764;SDS011;6953;48.810;9.204;2022-08-14T12:17:21;0.00;;;0.00;;
13764;SDS011;6953;48.810;9.204;2022-08-14T12:19:49;0.00;;;0.00;;
13764;SDS011;6953;48.810;9.204;2022-08-14T12:22:18;0.00;;;0.00;;
13764;SDS011;6953;48.810;9.204;2022-08-14T12:24:44;0.00;;;0.00;;
13764;SDS011;6953;48.810;9.204;2022-08-14T12:27:14;0.00;;;0.00;;
13764;SDS011;6953;48.810;9.204;2022-08-14T12:29:49;0.00;;;0.00;;
13764;SDS011;6953;48.810;9.204;2022-08-14T12:32:16;0.00;;;0.00;;
13764;SDS011;6953;48.810;9.204;2022-08-14T12:34:41;0.00;;;0.00;;
13764;SDS011;6953;48.810;9.204;2022-08-14T12:37:07;0.00;;;0.00;;
13764;SDS011;6953;48.810;9.204;2022-08-14T12:39:34;0.00;;;0.00;;
13764;SDS011;6953;48.810;9.204;2022-08-14T12:42:00;0.00;;;0.00;;
13764;SDS011;6953;48.810;9.204;2022-08-14T12:44:32;0.00;;;0.00;;
13764;SDS011;6953;48.810;9.204;2022-08-14T12:47:02;0.00;;;0.00;;
13764;SDS011;6953;48.810;9.204;2022-08-14T12:49:36;0.00;;;0.00;;
13764;SDS011;6953;48.810;9.204;2022-08-14T12:52:03;0.00;;;0.00;;
13764;SDS011;6953;48.810;9.204;2022-08-14T12:54:32;0.00;;;0.00;;
13764;SDS011;6953;48.810;9.204;2022-08-14T12:57:02;0.00;;;0.00;;
13764;SDS011;6953;48.810;9.204;2022-08-14T12:59:32;0.00;;;0.00;;
13764;SDS011;6953;48.810;9.204;2022-08-14T13:01:57;0.00;;;0.00;;
13764;SDS011;6953;48.810;9.204;2022-08-14T13:04:23;0.00;;;0.00;;
13764;SDS011;6953;48.810;9.204;2022-08-14T13:06:49;0.00;;;0.00;;
13764;SDS011;6953;48.810;9.204;2022-08-14T13:09:15;0.00;;;0.00;;
13764;SDS011;6953;48.810;9.204;2022-08-14T13:11:42;0.00;;;0.00;;
13764;SDS011;6953;48.810;9.204;2022-08-14T13:14:10;0.00;;;0.00;;
13764;SDS011;6953;48.810;9.204;2022-08-14T13:16:38;0.00;;;0.00;;
13764;SDS011;6953;48.810;9.204;2022-08-14T13:19:06;0.00;;;0.00;;
13764;SDS011;6953;48.810;9.204;2022-08-14T13:21:35;0.00;;;0.00;;
13764;SDS011;6953;48.810;9.204;2022-08-14T13:24:03;0.00;;;0.00;;
13764;SDS011;6953;48.810;9.204;2022-08-14T13:26:29;0.00;;;0.00;;
13764;SDS011;6953;48.810;9.204;2022-08-14T13:28:57;0.00;;;0.00;;
13764;SDS011;6953;48.810;9.204;2022-08-14T13:31:26;0.00;;;0.00;;
13764;SDS011;6953;48.810;9.204;2022-08-14T13:33:57;0.00;;;0.00;;
13764;SDS011;6953;48.810;9.204;2022-08-14T13:36:24;0.00;;;0.00;;
13764;SDS011;6953;48.810;9.204;2022-08-14T13:38:50;0.00;;;0.00;;
13764;SDS011;6953;48.810;9.204;2022-08-14T13:41:18;0.00;;;0.00;;
13764;SDS011;6953;48.810;9.204;2022-08-14T13:43:48;0.00;;;0.00;;
13764;SDS011;6953;48.810;9.204;2022-08-14T13:46:15;0.00;;;0.00;;
13764;SDS011;6953;48.810;9.204;2022-08-14T13:48:43;0.00;;;0.00;;
13764;SDS011;6953;48.810;9.204;2022-08-14T13:51:09;0.00;;;0.00;;
13764;SDS011;6953;48.810;9.204;2022-08-14T13:53:40;0.00;;;0.00;;
13764;SDS011;6953;48.810;9.204;2022-08-14T13:56:10;0.00;;;0.00;;
13764;SDS011;6953;48.810;9.204;2022-08-14T13:58:37;0.00;;;0.00;;
13764;SDS011;6953;48.810;9.204;2022-08-14T14:01:03;0.00;;;0.00;;
13764;SDS011;6953;48.810;9.204;2022-08-14T14:03:32;0.00;;;0.00;;
13764;SDS011;6953;48.810;9.204;2022-08-14T14:05:59;0.00;;;0.00;;
13764;SDS011;6953;48.810;9.204;2022-08-14T14:08:26;0.00;;;0.00;;
13764;SDS011;6953;48.810;9.204;2022-08-14T14:10:53;0.00;;;0.00;;
13764;SDS011;6953;48.810;9.204;2022-08-14T14:13:20;0.00;;;0.00;;
13764;SDS011;6953;48.810;9.204;2022-08-14T14:15:47;0.00;;;0.00;;
13764;SDS011;6953;48.810;9.204;2022-08-14T14:18:13;0.00;;;0.00;;
13764;SDS011;6953;48.810;9.204;2022-08-14T14:20:41;0.00;;;0.00;;
13764;SDS011;6953;48.810;9.204;2022-08-14T14:23:08;0.00;;;0.00;;
13764;SDS011;6953;48.810;9.204;2022-08-14T14:25:41;0.00;;;0.00;;
13764;SDS011;6953;48.810;9.204;2022-08-14T14:28:11;0.00;;;0.00;;
13764;SDS011;6953;48.810;9.204;2022-08-14T14:30:38;0.00;;;0.00;;
13764;SDS011;6953;48.810;9.204;2022-08-14T14:33:10;0.00;;;0.00;;
13764;SDS011;6953;48.810;9.204;2022-08-14T14:35:37;0.00;;;0.00;;
13764;SDS011;6953;48.810;9.204;2022-08-14T14:38:05;0.00;;;0.00;;
13764;SDS011;6953;48.810;9.204;2022-08-14T14:40:32;0.00;;;0.00;;
13764;SDS011;6953;48.810;9.204;2022-08-14T14:42:58;0.00;;;0.00;;
13764;SDS011;6953;48.810;9.204;2022-08-14T14:45:27;0.00;;;0.00;;
13764;SDS011;6953;48.810;9.204;2022-08-14T14:47:54;0.00;;;0.00;;
13764;SDS011;6953;48.810;9.204;2022-08-14T14:50:20;0.00;;;0.00;;
13764;SDS011;6953;48.810;9.204;2022-08-14T14:52:47;0.00;;;0.00;;
13764;SDS011;6953;48.810;9.204;2022-08-14T14:55:14;0.00;;;0.00;;
13764;SDS011;6953;48.810;9.204;2022-08-14T14:57:41;0.00;;;0.00;;
13764;SDS011;6953;48.810;9.204;2022-08-14T15:02:36;0.00;;;0.00;;
13764;SDS011;6953;48.810;9.204;2022-08-14T15:05:04;0.00;;;0.00;;
13764;SDS011;6953;48.810;9.204;2022-08-14T15:07:32;0.00;;;0.00;;
13764;SDS011;6953;48.810;9.204;2022-08-14T15:09:57;0.00;;;0.00;;
13764;SDS011;6953;48.810;9.204;2022-08-14T15:12:23;0.00;;;0.00;;
13764;SDS011;6953;48.810;9.204;2022-08-14T15:14:49;0.00;;;0.00;;
13764;SDS011;6953;48.810;9.204;2022-08-14T15:17:14;0.00;;;0.00;;
13764;SDS011;6953;48.810;9.204;2022-08-14T15:19:40;0.00;;;0.00;;
13764;SDS011;6953;48.810;9.204;2022-08-14T15:22:06;0.00;;;0.00;;
13764;SDS011;6953;48.810;9.204;2022-08-14T15:24:32;0.00;;;0.00;;
13764;SDS011;6953;48.810;9.204;2022-08-14T15:26:58;0.00;;;0.00;;
13764;SDS011;6953;48.810;9.204;2022-08-14T15:29:23;0.00;;;0.00;;
13764;SDS011;6953;48.810;9.204;2022-08-14T15:31:49;0.00;;;0.00;;
13764;SDS011;6953;48.810;9.204;2022-08-14T15:34:14;0.00;;;0.00;;
13764;SDS011;6953;48.810;9.204;2022-08-14T15:36:42;0.00;;;0.00;;
13764;SDS011;6953;48.810;9.204;2022-08-14T15:39:09;0.00;;;0.00;;
13764;SDS011;6953;48.810;9.204;2022-08-14T15:41:35;0.00;;;0.00;;
13764;SDS011;6953;48.810;9.204;2022-08-14T15:44:00;0.00;;;0.00;;
13764;SDS011;6953;48.810;9.204;2022-08-14T15:46:26;0.00;;;0.00;;
13764;SDS011;6953;48.810;9.204;2022-08-14T15:48:52;0.00;;;0.00;;
13764;SDS011;6953;48.810;9.204;2022-08-14T15:51:18;0.00;;;0.00;;